Terminal Aerodrome Forecast
Issued by NWS

Home | Current Version | Previous Version | Text Only | Print | Product List | Glossary On
Versions: 1 2 3 4 5 6 7 8 9 10 11 12 13 14 15 16 17
774
FTUS43 KIND 170705 AAA
TAFLAF
TAF AMD
KLAF 170705Z 1707/1806 16010KT P6SM SCT006 OVC014 WS020/20050KT
      TEMPO 1707/1710 4SM -SHRA SCT003 OVC006
     FM171000 23009KT 3SM BR VCSH OVC008
     FM171300 23009KT 4SM BR VCSH OVC003
     FM171800 25010KT P6SM OVC003
     FM171900 25010KT P6SM OVC008
     FM180200 27008KT P6SM OVC003
     FM180400 28007KT P6SM OVC008
      AMD LTD TO CLD VIS AND WIND TIL 171400=

USA.gov is the U.S. government's official web portal to all federal, state and local government web resources and services.